sensor_id;sensor_type;location;lat;lon;timestamp;P1;durP1;ratioP1;P2;durP2;ratioP2
27612;SDS011;15036;48.094;-1.690;2023-05-13T00:02:16;12.50;;;8.73;;
27612;SDS011;15036;48.094;-1.690;2023-05-13T00:04:41;11.73;;;8.27;;
27612;SDS011;15036;48.094;-1.690;2023-05-13T00:07:07;10.77;;;9.05;;
27612;SDS011;15036;48.094;-1.690;2023-05-13T00:09:33;10.63;;;8.68;;
27612;SDS011;15036;48.094;-1.690;2023-05-13T00:11:59;11.52;;;8.48;;
27612;SDS011;15036;48.094;-1.690;2023-05-13T00:14:24;10.85;;;8.82;;
27612;SDS011;15036;48.094;-1.690;2023-05-13T00:16:50;13.25;;;8.85;;
27612;SDS011;15036;48.094;-1.690;2023-05-13T00:19:15;13.23;;;8.85;;
27612;SDS011;15036;48.094;-1.690;2023-05-13T00:21:40;11.68;;;8.90;;
27612;SDS011;15036;48.094;-1.690;2023-05-13T00:24:06;12.73;;;9.10;;
27612;SDS011;15036;48.094;-1.690;2023-05-13T00:26:31;11.60;;;9.00;;
27612;SDS011;15036;48.094;-1.690;2023-05-13T00:28:57;12.18;;;9.30;;
27612;SDS011;15036;48.094;-1.690;2023-05-13T00:31:22;13.27;;;9.40;;
27612;SDS011;15036;48.094;-1.690;2023-05-13T00:33:48;11.10;;;9.15;;
27612;SDS011;15036;48.094;-1.690;2023-05-13T00:36:13;14.75;;;9.48;;
27612;SDS011;15036;48.094;-1.690;2023-05-13T00:38:39;13.55;;;9.70;;
27612;SDS011;15036;48.094;-1.690;2023-05-13T00:41:04;11.98;;;9.02;;
27612;SDS011;15036;48.094;-1.690;2023-05-13T00:43:30;12.98;;;9.75;;
27612;SDS011;15036;48.094;-1.690;2023-05-13T00:45:55;13.10;;;9.07;;
27612;SDS011;15036;48.094;-1.690;2023-05-13T00:48:21;14.90;;;10.70;;
27612;SDS011;15036;48.094;-1.690;2023-05-13T00:50:47;12.82;;;10.00;;
27612;SDS011;15036;48.094;-1.690;2023-05-13T00:53:13;15.73;;;10.13;;
27612;SDS011;15036;48.094;-1.690;2023-05-13T00:55:44;16.80;;;10.98;;
27612;SDS011;15036;48.094;-1.690;2023-05-13T00:58:10;14.02;;;11.38;;
27612;SDS011;15036;48.094;-1.690;2023-05-13T01:00:38;14.65;;;10.70;;
27612;SDS011;15036;48.094;-1.690;2023-05-13T01:03:37;17.13;;;11.30;;
27612;SDS011;15036;48.094;-1.690;2023-05-13T01:08:42;17.33;;;12.77;;
27612;SDS011;15036;48.094;-1.690;2023-05-13T01:11:17;14.90;;;12.40;;
27612;SDS011;15036;48.094;-1.690;2023-05-13T01:13:48;17.55;;;11.90;;
27612;SDS011;15036;48.094;-1.690;2023-05-13T01:16:27;18.27;;;12.40;;
27612;SDS011;15036;48.094;-1.690;2023-05-13T01:19:01;20.50;;;13.50;;
27612;SDS011;15036;48.094;-1.690;2023-05-13T01:21:34;19.60;;;13.63;;
27612;SDS011;15036;48.094;-1.690;2023-05-13T01:24:00;18.10;;;13.15;;
27612;SDS011;15036;48.094;-1.690;2023-05-13T01:26:25;21.77;;;14.18;;
27612;SDS011;15036;48.094;-1.690;2023-05-13T01:28:52;19.23;;;14.82;;
27612;SDS011;15036;48.094;-1.690;2023-05-13T01:31:18;21.27;;;14.63;;
27612;SDS011;15036;48.094;-1.690;2023-05-13T01:33:45;18.80;;;14.55;;
27612;SDS011;15036;48.094;-1.690;2023-05-13T01:36:11;21.33;;;15.40;;
27612;SDS011;15036;48.094;-1.690;2023-05-13T01:38:37;24.63;;;17.05;;
27612;SDS011;15036;48.094;-1.690;2023-05-13T01:41:04;26.13;;;17.38;;
27612;SDS011;15036;48.094;-1.690;2023-05-13T01:43:29;25.98;;;18.10;;
27612;SDS011;15036;48.094;-1.690;2023-05-13T01:45:55;30.70;;;19.27;;
27612;SDS011;15036;48.094;-1.690;2023-05-13T01:48:24;31.38;;;19.48;;
27612;SDS011;15036;48.094;-1.690;2023-05-13T01:50:49;31.48;;;19.80;;
27612;SDS011;15036;48.094;-1.690;2023-05-13T01:53:16;32.25;;;20.00;;
27612;SDS011;15036;48.094;-1.690;2023-05-13T01:55:42;32.63;;;21.67;;
27612;SDS011;15036;48.094;-1.690;2023-05-13T01:58:07;30.70;;;20.27;;
27612;SDS011;15036;48.094;-1.690;2023-05-13T02:00:32;33.88;;;22.15;;
27612;SDS011;15036;48.094;-1.690;2023-05-13T02:02:58;31.15;;;20.83;;
27612;SDS011;15036;48.094;-1.690;2023-05-13T02:05:23;36.45;;;23.00;;
27612;SDS011;15036;48.094;-1.690;2023-05-13T02:07:49;35.83;;;22.17;;
27612;SDS011;15036;48.094;-1.690;2023-05-13T02:10:15;33.63;;;23.02;;
27612;SDS011;15036;48.094;-1.690;2023-05-13T02:12:40;41.63;;;23.20;;
27612;SDS011;15036;48.094;-1.690;2023-05-13T02:15:06;37.85;;;23.52;;
27612;SDS011;15036;48.094;-1.690;2023-05-13T02:17:31;40.33;;;25.05;;
27612;SDS011;15036;48.094;-1.690;2023-05-13T02:19:57;46.38;;;26.85;;
27612;SDS011;15036;48.094;-1.690;2023-05-13T02:22:22;45.28;;;27.15;;
27612;SDS011;15036;48.094;-1.690;2023-05-13T02:24:48;41.65;;;25.58;;
27612;SDS011;15036;48.094;-1.690;2023-05-13T02:27:13;45.28;;;27.42;;
27612;SDS011;15036;48.094;-1.690;2023-05-13T02:29:40;47.33;;;28.05;;
27612;SDS011;15036;48.094;-1.690;2023-05-13T02:32:05;46.17;;;27.50;;
27612;SDS011;15036;48.094;-1.690;2023-05-13T02:34:31;45.50;;;26.98;;
27612;SDS011;15036;48.094;-1.690;2023-05-13T02:36:56;48.80;;;27.73;;
27612;SDS011;15036;48.094;-1.690;2023-05-13T02:39:22;44.83;;;27.73;;
27612;SDS011;15036;48.094;-1.690;2023-05-13T02:41:47;46.97;;;26.65;;
27612;SDS011;15036;48.094;-1.690;2023-05-13T02:44:13;42.15;;;26.77;;
27612;SDS011;15036;48.094;-1.690;2023-05-13T02:46:38;44.92;;;27.50;;
27612;SDS011;15036;48.094;-1.690;2023-05-13T02:49:04;48.88;;;26.73;;
27612;SDS011;15036;48.094;-1.690;2023-05-13T02:51:29;47.85;;;27.10;;
27612;SDS011;15036;48.094;-1.690;2023-05-13T02:53:55;49.55;;;27.83;;
27612;SDS011;15036;48.094;-1.690;2023-05-13T02:56:20;51.03;;;29.00;;
27612;SDS011;15036;48.094;-1.690;2023-05-13T02:58:45;51.47;;;29.92;;
27612;SDS011;15036;48.094;-1.690;2023-05-13T03:01:11;46.47;;;28.20;;
27612;SDS011;15036;48.094;-1.690;2023-05-13T03:03:38;50.42;;;30.00;;
27612;SDS011;15036;48.094;-1.690;2023-05-13T03:06:04;47.58;;;29.52;;
27612;SDS011;15036;48.094;-1.690;2023-05-13T03:08:30;47.03;;;29.27;;
27612;SDS011;15036;48.094;-1.690;2023-05-13T03:10:55;48.50;;;28.55;;
27612;SDS011;15036;48.094;-1.690;2023-05-13T03:13:21;41.15;;;26.80;;
27612;SDS011;15036;48.094;-1.690;2023-05-13T03:15:47;47.13;;;27.40;;
27612;SDS011;15036;48.094;-1.690;2023-05-13T03:18:12;43.58;;;27.40;;
27612;SDS011;15036;48.094;-1.690;2023-05-13T03:20:37;40.90;;;25.92;;
27612;SDS011;15036;48.094;-1.690;2023-05-13T03:23:03;43.05;;;26.42;;
27612;SDS011;15036;48.094;-1.690;2023-05-13T03:25:28;43.85;;;25.85;;
27612;SDS011;15036;48.094;-1.690;2023-05-13T03:27:53;40.30;;;25.05;;
27612;SDS011;15036;48.094;-1.690;2023-05-13T03:30:19;42.25;;;25.73;;
27612;SDS011;15036;48.094;-1.690;2023-05-13T03:32:44;42.85;;;25.80;;
27612;SDS011;15036;48.094;-1.690;2023-05-13T03:35:10;47.88;;;24.80;;
27612;SDS011;15036;48.094;-1.690;2023-05-13T03:37:35;42.20;;;25.77;;
27612;SDS011;15036;48.094;-1.690;2023-05-13T03:40:01;44.65;;;26.25;;
27612;SDS011;15036;48.094;-1.690;2023-05-13T03:42:26;41.60;;;26.38;;
27612;SDS011;15036;48.094;-1.690;2023-05-13T03:44:54;39.55;;;26.00;;
27612;SDS011;15036;48.094;-1.690;2023-05-13T03:47:21;41.83;;;26.48;;
27612;SDS011;15036;48.094;-1.690;2023-05-13T03:49:46;48.17;;;27.50;;
27612;SDS011;15036;48.094;-1.690;2023-05-13T03:52:12;43.47;;;27.00;;
27612;SDS011;15036;48.094;-1.690;2023-05-13T03:54:38;45.88;;;27.23;;
27612;SDS011;15036;48.094;-1.690;2023-05-13T03:57:03;43.22;;;27.63;;
27612;SDS011;15036;48.094;-1.690;2023-05-13T03:59:29;44.50;;;27.40;;
27612;SDS011;15036;48.094;-1.690;2023-05-13T04:01:54;45.28;;;28.13;;
27612;SDS011;15036;48.094;-1.690;2023-05-13T04:04:20;48.50;;;29.77;;
27612;SDS011;15036;48.094;-1.690;2023-05-13T04:06:45;46.47;;;28.65;;
27612;SDS011;15036;48.094;-1.690;2023-05-13T04:09:10;56.10;;;30.08;;
27612;SDS011;15036;48.094;-1.690;2023-05-13T04:11:36;56.55;;;31.58;;
27612;SDS011;15036;48.094;-1.690;2023-05-13T04:14:01;49.10;;;30.02;;
27612;SDS011;15036;48.094;-1.690;2023-05-13T04:16:26;55.20;;;31.02;;
27612;SDS011;15036;48.094;-1.690;2023-05-13T04:18:53;51.72;;;29.30;;
27612;SDS011;15036;48.094;-1.690;2023-05-13T04:21:18;48.83;;;30.40;;
27612;SDS011;15036;48.094;-1.690;2023-05-13T04:23:43;48.75;;;28.50;;
27612;SDS011;15036;48.094;-1.690;2023-05-13T04:26:10;46.80;;;28.73;;
27612;SDS011;15036;48.094;-1.690;2023-05-13T04:28:36;51.70;;;30.88;;
27612;SDS011;15036;48.094;-1.690;2023-05-13T04:31:02;52.85;;;31.20;;
27612;SDS011;15036;48.094;-1.690;2023-05-13T04:33:27;49.65;;;29.23;;
27612;SDS011;15036;48.094;-1.690;2023-05-13T04:35:53;50.72;;;29.33;;
27612;SDS011;15036;48.094;-1.690;2023-05-13T04:38:18;46.05;;;28.90;;
27612;SDS011;15036;48.094;-1.690;2023-05-13T04:40:43;50.50;;;29.05;;
27612;SDS011;15036;48.094;-1.690;2023-05-13T04:43:12;47.80;;;28.20;;
27612;SDS011;15036;48.094;-1.690;2023-05-13T04:45:38;47.90;;;28.60;;
27612;SDS011;15036;48.094;-1.690;2023-05-13T04:48:04;50.38;;;29.23;;
27612;SDS011;15036;48.094;-1.690;2023-05-13T04:50:31;51.40;;;29.50;;
27612;SDS011;15036;48.094;-1.690;2023-05-13T04:52:56;48.58;;;27.85;;
27612;SDS011;15036;48.094;-1.690;2023-05-13T04:55:22;47.47;;;28.80;;
27612;SDS011;15036;48.094;-1.690;2023-05-13T04:57:47;48.45;;;28.38;;
27612;SDS011;15036;48.094;-1.690;2023-05-13T05:00:13;45.35;;;26.52;;
27612;SDS011;15036;48.094;-1.690;2023-05-13T05:02:39;47.17;;;28.77;;
27612;SDS011;15036;48.094;-1.690;2023-05-13T05:05:04;46.28;;;28.02;;
27612;SDS011;15036;48.094;-1.690;2023-05-13T05:07:30;46.10;;;28.35;;
27612;SDS011;15036;48.094;-1.690;2023-05-13T05:09:56;50.13;;;28.48;;
27612;SDS011;15036;48.094;-1.690;2023-05-13T05:12:21;43.17;;;28.17;;
27612;SDS011;15036;48.094;-1.690;2023-05-13T05:14:46;45.00;;;28.02;;
27612;SDS011;15036;48.094;-1.690;2023-05-13T05:17:12;48.15;;;28.05;;
27612;SDS011;15036;48.094;-1.690;2023-05-13T05:19:37;44.70;;;28.42;;
27612;SDS011;15036;48.094;-1.690;2023-05-13T05:22:04;52.72;;;29.45;;
27612;SDS011;15036;48.094;-1.690;2023-05-13T05:24:29;49.20;;;29.80;;
27612;SDS011;15036;48.094;-1.690;2023-05-13T05:26:55;53.75;;;29.83;;
27612;SDS011;15036;48.094;-1.690;2023-05-13T05:29:20;48.80;;;30.52;;
27612;SDS011;15036;48.094;-1.690;2023-05-13T05:31:46;53.65;;;29.92;;
27612;SDS011;15036;48.094;-1.690;2023-05-13T05:34:12;50.00;;;29.60;;
27612;SDS011;15036;48.094;-1.690;2023-05-13T05:36:37;49.88;;;30.27;;
27612;SDS011;15036;48.094;-1.690;2023-05-13T05:39:02;54.13;;;29.67;;
27612;SDS011;15036;48.094;-1.690;2023-05-13T05:41:28;52.15;;;31.27;;
27612;SDS011;15036;48.094;-1.690;2023-05-13T05:43:53;54.20;;;30.38;;
27612;SDS011;15036;48.094;-1.690;2023-05-13T05:46:18;54.13;;;29.80;;
27612;SDS011;15036;48.094;-1.690;2023-05-13T05:48:44;50.45;;;28.20;;
27612;SDS011;15036;48.094;-1.690;2023-05-13T05:51:09;44.72;;;28.58;;
27612;SDS011;15036;48.094;-1.690;2023-05-13T05:53:35;45.15;;;28.73;;
27612;SDS011;15036;48.094;-1.690;2023-05-13T05:56:02;50.35;;;30.35;;
27612;SDS011;15036;48.094;-1.690;2023-05-13T05:58:28;47.22;;;29.55;;
27612;SDS011;15036;48.094;-1.690;2023-05-13T06:00:53;51.88;;;30.38;;
27612;SDS011;15036;48.094;-1.690;2023-05-13T06:03:19;50.22;;;29.75;;
27612;SDS011;15036;48.094;-1.690;2023-05-13T06:05:45;54.85;;;30.38;;
27612;SDS011;15036;48.094;-1.690;2023-05-13T06:08:10;47.53;;;29.48;;
27612;SDS011;15036;48.094;-1.690;2023-05-13T06:10:36;53.75;;;31.42;;
27612;SDS011;15036;48.094;-1.690;2023-05-13T06:13:02;46.70;;;28.38;;
27612;SDS011;15036;48.094;-1.690;2023-05-13T06:15:28;48.20;;;29.02;;
27612;SDS011;15036;48.094;-1.690;2023-05-13T06:17:53;50.33;;;30.50;;
27612;SDS011;15036;48.094;-1.690;2023-05-13T06:20:18;53.03;;;29.55;;
27612;SDS011;15036;48.094;-1.690;2023-05-13T06:22:44;47.50;;;29.45;;
27612;SDS011;15036;48.094;-1.690;2023-05-13T06:25:09;47.17;;;28.27;;
27612;SDS011;15036;48.094;-1.690;2023-05-13T06:27:35;48.17;;;29.85;;
27612;SDS011;15036;48.094;-1.690;2023-05-13T06:30:00;47.08;;;28.95;;
27612;SDS011;15036;48.094;-1.690;2023-05-13T06:32:26;50.53;;;30.10;;
27612;SDS011;15036;48.094;-1.690;2023-05-13T06:34:51;55.83;;;29.40;;
27612;SDS011;15036;48.094;-1.690;2023-05-13T06:37:16;51.50;;;30.55;;
27612;SDS011;15036;48.094;-1.690;2023-05-13T06:39:42;53.55;;;30.08;;
27612;SDS011;15036;48.094;-1.690;2023-05-13T06:42:07;52.58;;;31.65;;
27612;SDS011;15036;48.094;-1.690;2023-05-13T06:44:33;55.67;;;30.17;;
27612;SDS011;15036;48.094;-1.690;2023-05-13T06:46:58;48.35;;;29.98;;
27612;SDS011;15036;48.094;-1.690;2023-05-13T06:49:24;50.50;;;28.77;;
27612;SDS011;15036;48.094;-1.690;2023-05-13T06:51:50;48.75;;;29.90;;
27612;SDS011;15036;48.094;-1.690;2023-05-13T06:54:15;47.42;;;29.25;;
27612;SDS011;15036;48.094;-1.690;2023-05-13T06:56:42;47.63;;;29.67;;
27612;SDS011;15036;48.094;-1.690;2023-05-13T06:59:08;47.00;;;28.70;;
27612;SDS011;15036;48.094;-1.690;2023-05-13T07:01:34;48.45;;;28.17;;
27612;SDS011;15036;48.094;-1.690;2023-05-13T07:03:59;51.03;;;29.63;;
27612;SDS011;15036;48.094;-1.690;2023-05-13T07:06:25;47.67;;;28.88;;
27612;SDS011;15036;48.094;-1.690;2023-05-13T07:08:50;50.92;;;29.40;;
27612;SDS011;15036;48.094;-1.690;2023-05-13T07:11:16;49.00;;;29.05;;
27612;SDS011;15036;48.094;-1.690;2023-05-13T07:13:41;50.55;;;28.67;;
27612;SDS011;15036;48.094;-1.690;2023-05-13T07:16:06;50.13;;;28.48;;
27612;SDS011;15036;48.094;-1.690;2023-05-13T07:18:32;46.28;;;28.30;;
27612;SDS011;15036;48.094;-1.690;2023-05-13T07:20:57;46.30;;;27.10;;
27612;SDS011;15036;48.094;-1.690;2023-05-13T07:23:22;47.65;;;27.63;;
27612;SDS011;15036;48.094;-1.690;2023-05-13T07:25:48;45.40;;;28.00;;
27612;SDS011;15036;48.094;-1.690;2023-05-13T07:28:16;42.67;;;27.98;;
27612;SDS011;15036;48.094;-1.690;2023-05-13T07:30:42;46.13;;;28.33;;
27612;SDS011;15036;48.094;-1.690;2023-05-13T07:33:08;42.40;;;27.98;;
27612;SDS011;15036;48.094;-1.690;2023-05-13T07:35:33;47.50;;;28.70;;
27612;SDS011;15036;48.094;-1.690;2023-05-13T07:37:58;49.03;;;28.80;;
27612;SDS011;15036;48.094;-1.690;2023-05-13T07:40:24;45.38;;;28.48;;
27612;SDS011;15036;48.094;-1.690;2023-05-13T07:42:49;43.25;;;27.45;;
27612;SDS011;15036;48.094;-1.690;2023-05-13T07:45:14;45.35;;;27.48;;
27612;SDS011;15036;48.094;-1.690;2023-05-13T07:47:40;38.35;;;26.77;;
27612;SDS011;15036;48.094;-1.690;2023-05-13T07:50:07;42.45;;;26.10;;
27612;SDS011;15036;48.094;-1.690;2023-05-13T07:52:32;39.30;;;25.80;;
27612;SDS011;15036;48.094;-1.690;2023-05-13T07:54:58;37.60;;;24.92;;
27612;SDS011;15036;48.094;-1.690;2023-05-13T07:57:23;41.72;;;25.08;;
27612;SDS011;15036;48.094;-1.690;2023-05-13T07:59:48;39.20;;;23.95;;
27612;SDS011;15036;48.094;-1.690;2023-05-13T08:02:14;41.33;;;25.00;;
27612;SDS011;15036;48.094;-1.690;2023-05-13T08:04:39;40.80;;;24.58;;
27612;SDS011;15036;48.094;-1.690;2023-05-13T08:07:05;36.45;;;23.67;;
27612;SDS011;15036;48.094;-1.690;2023-05-13T08:09:30;41.88;;;24.85;;
27612;SDS011;15036;48.094;-1.690;2023-05-13T08:11:57;36.88;;;23.50;;
27612;SDS011;15036;48.094;-1.690;2023-05-13T08:14:22;38.70;;;22.77;;
27612;SDS011;15036;48.094;-1.690;2023-05-13T08:16:47;31.13;;;22.02;;
27612;SDS011;15036;48.094;-1.690;2023-05-13T08:19:13;36.92;;;22.17;;
27612;SDS011;15036;48.094;-1.690;2023-05-13T08:21:39;39.28;;;23.83;;
27612;SDS011;15036;48.094;-1.690;2023-05-13T08:24:05;36.03;;;22.70;;
27612;SDS011;15036;48.094;-1.690;2023-05-13T08:26:30;32.28;;;22.15;;
27612;SDS011;15036;48.094;-1.690;2023-05-13T08:28:56;37.97;;;22.55;;
27612;SDS011;15036;48.094;-1.690;2023-05-13T08:31:21;31.98;;;20.88;;
27612;SDS011;15036;48.094;-1.690;2023-05-13T08:33:49;37.40;;;22.38;;
27612;SDS011;15036;48.094;-1.690;2023-05-13T08:36:14;36.63;;;22.90;;
27612;SDS011;15036;48.094;-1.690;2023-05-13T08:38:41;36.83;;;22.45;;
27612;SDS011;15036;48.094;-1.690;2023-05-13T08:41:07;36.08;;;22.45;;
27612;SDS011;15036;48.094;-1.690;2023-05-13T08:43:34;37.05;;;23.15;;
27612;SDS011;15036;48.094;-1.690;2023-05-13T08:46:02;36.78;;;22.80;;
27612;SDS011;15036;48.094;-1.690;2023-05-13T08:48:28;34.45;;;22.92;;
27612;SDS011;15036;48.094;-1.690;2023-05-13T08:50:55;34.03;;;22.92;;
27612;SDS011;15036;48.094;-1.690;2023-05-13T08:53:21;31.67;;;21.23;;
27612;SDS011;15036;48.094;-1.690;2023-05-13T08:55:50;35.75;;;21.02;;
27612;SDS011;15036;48.094;-1.690;2023-05-13T08:58:16;31.55;;;21.30;;
27612;SDS011;15036;48.094;-1.690;2023-05-13T09:00:41;35.17;;;22.27;;
27612;SDS011;15036;48.094;-1.690;2023-05-13T09:03:07;36.17;;;23.00;;
27612;SDS011;15036;48.094;-1.690;2023-05-13T09:05:32;29.83;;;21.90;;
27612;SDS011;15036;48.094;-1.690;2023-05-13T09:07:59;34.63;;;22.08;;
27612;SDS011;15036;48.094;-1.690;2023-05-13T09:10:33;35.35;;;22.30;;
27612;SDS011;15036;48.094;-1.690;2023-05-13T09:12:58;35.03;;;22.70;;
27612;SDS011;15036;48.094;-1.690;2023-05-13T09:15:26;34.75;;;22.55;;
27612;SDS011;15036;48.094;-1.690;2023-05-13T09:17:57;32.15;;;21.42;;
27612;SDS011;15036;48.094;-1.690;2023-05-13T09:20:25;31.45;;;22.92;;
27612;SDS011;15036;48.094;-1.690;2023-05-13T09:22:52;36.90;;;22.77;;
27612;SDS011;15036;48.094;-1.690;2023-05-13T09:25:21;37.25;;;23.80;;
27612;SDS011;15036;48.094;-1.690;2023-05-13T09:27:53;31.17;;;22.23;;
27612;SDS011;15036;48.094;-1.690;2023-05-13T09:30:22;34.17;;;21.77;;
27612;SDS011;15036;48.094;-1.690;2023-05-13T09:35:51;27.80;;;19.60;;
27612;SDS011;15036;48.094;-1.690;2023-05-13T09:40:51;31.15;;;19.40;;
27612;SDS011;15036;48.094;-1.690;2023-05-13T09:43:21;31.65;;;20.45;;
27612;SDS011;15036;48.094;-1.690;2023-05-13T09:46:07;26.52;;;19.05;;
27612;SDS011;15036;48.094;-1.690;2023-05-13T09:48:33;28.52;;;18.50;;
27612;SDS011;15036;48.094;-1.690;2023-05-13T09:50:58;27.48;;;17.40;;
27612;SDS011;15036;48.094;-1.690;2023-05-13T09:53:25;28.65;;;18.42;;
27612;SDS011;15036;48.094;-1.690;2023-05-13T09:55:52;26.67;;;17.80;;
27612;SDS011;15036;48.094;-1.690;2023-05-13T09:58:24;28.98;;;17.58;;
27612;SDS011;15036;48.094;-1.690;2023-05-13T10:00:52;24.73;;;17.35;;
27612;SDS011;15036;48.094;-1.690;2023-05-13T10:03:17;25.45;;;16.83;;
27612;SDS011;15036;48.094;-1.690;2023-05-13T10:05:43;26.75;;;18.05;;
27612;SDS011;15036;48.094;-1.690;2023-05-13T10:08:09;24.77;;;16.33;;
27612;SDS011;15036;48.094;-1.690;2023-05-13T10:10:36;25.73;;;16.98;;
27612;SDS011;15036;48.094;-1.690;2023-05-13T10:13:12;25.75;;;16.42;;
27612;SDS011;15036;48.094;-1.690;2023-05-13T10:15:50;23.48;;;16.23;;
27612;SDS011;15036;48.094;-1.690;2023-05-13T10:18:17;24.25;;;16.00;;
27612;SDS011;15036;48.094;-1.690;2023-05-13T10:20:44;22.38;;;15.73;;
27612;SDS011;15036;48.094;-1.690;2023-05-13T10:23:11;22.17;;;14.90;;
27612;SDS011;15036;48.094;-1.690;2023-05-13T10:25:36;20.40;;;16.02;;
27612;SDS011;15036;48.094;-1.690;2023-05-13T10:28:02;20.92;;;15.43;;
27612;SDS011;15036;48.094;-1.690;2023-05-13T10:30:29;26.08;;;15.90;;
27612;SDS011;15036;48.094;-1.690;2023-05-13T10:32:56;19.63;;;14.60;;
27612;SDS011;15036;48.094;-1.690;2023-05-13T10:35:22;23.75;;;14.80;;
27612;SDS011;15036;48.094;-1.690;2023-05-13T10:43:21;23.63;;;14.15;;
27612;SDS011;15036;48.094;-1.690;2023-05-13T10:45:57;23.23;;;14.10;;
27612;SDS011;15036;48.094;-1.690;2023-05-13T10:48:25;20.83;;;14.68;;
27612;SDS011;15036;48.094;-1.690;2023-05-13T10:50:59;24.27;;;13.85;;
27612;SDS011;15036;48.094;-1.690;2023-05-13T10:53:29;19.90;;;13.95;;
27612;SDS011;15036;48.094;-1.690;2023-05-13T10:55:56;21.38;;;12.90;;
27612;SDS011;15036;48.094;-1.690;2023-05-13T11:01:31;18.42;;;12.30;;
27612;SDS011;15036;48.094;-1.690;2023-05-13T11:03:59;21.70;;;12.32;;
27612;SDS011;15036;48.094;-1.690;2023-05-13T11:06:33;16.63;;;11.60;;
27612;SDS011;15036;48.094;-1.690;2023-05-13T11:08:59;20.30;;;12.80;;
27612;SDS011;15036;48.094;-1.690;2023-05-13T11:11:34;19.52;;;11.95;;
27612;SDS011;15036;48.094;-1.690;2023-05-13T11:14:02;18.70;;;11.50;;
27612;SDS011;15036;48.094;-1.690;2023-05-13T11:16:34;19.27;;;13.25;;
27612;SDS011;15036;48.094;-1.690;2023-05-13T11:19:01;17.90;;;13.20;;
27612;SDS011;15036;48.094;-1.690;2023-05-13T11:21:28;19.80;;;13.18;;
27612;SDS011;15036;48.094;-1.690;2023-05-13T11:23:57;19.85;;;13.07;;
27612;SDS011;15036;48.094;-1.690;2023-05-13T11:26:22;18.40;;;12.38;;
27612;SDS011;15036;48.094;-1.690;2023-05-13T11:28:54;17.58;;;13.15;;
27612;SDS011;15036;48.094;-1.690;2023-05-13T11:31:21;22.63;;;13.52;;
27612;SDS011;15036;48.094;-1.690;2023-05-13T11:36:51;18.35;;;13.43;;
27612;SDS011;15036;48.094;-1.690;2023-05-13T11:39:29;17.50;;;13.52;;
27612;SDS011;15036;48.094;-1.690;2023-05-13T11:41:55;18.23;;;12.95;;
27612;SDS011;15036;48.094;-1.690;2023-05-13T11:44:22;18.52;;;13.85;;
27612;SDS011;15036;48.094;-1.690;2023-05-13T11:54:47;23.50;;;14.40;;
27612;SDS011;15036;48.094;-1.690;2023-05-13T11:59:48;23.85;;;16.75;;
27612;SDS011;15036;48.094;-1.690;2023-05-13T12:02:27;22.88;;;15.98;;
27612;SDS011;15036;48.094;-1.690;2023-05-13T12:04:58;20.83;;;16.65;;
27612;SDS011;15036;48.094;-1.690;2023-05-13T12:07:28;22.10;;;17.30;;
27612;SDS011;15036;48.094;-1.690;2023-05-13T12:09:56;19.80;;;15.95;;
27612;SDS011;15036;48.094;-1.690;2023-05-13T12:12:24;20.55;;;16.05;;
27612;SDS011;15036;48.094;-1.690;2023-05-13T12:14:51;21.60;;;17.58;;
27612;SDS011;15036;48.094;-1.690;2023-05-13T12:17:18;21.77;;;16.50;;
27612;SDS011;15036;48.094;-1.690;2023-05-13T12:20:02;23.55;;;16.48;;
27612;SDS011;15036;48.094;-1.690;2023-05-13T12:30:33;17.63;;;14.05;;
27612;SDS011;15036;48.094;-1.690;2023-05-13T12:32:59;17.67;;;14.85;;
27612;SDS011;15036;48.094;-1.690;2023-05-13T12:35:24;22.33;;;15.73;;
27612;SDS011;15036;48.094;-1.690;2023-05-13T12:38:03;20.23;;;15.90;;
27612;SDS011;15036;48.094;-1.690;2023-05-13T12:40:31;20.25;;;15.35;;
27612;SDS011;15036;48.094;-1.690;2023-05-13T12:42:57;22.15;;;15.20;;
27612;SDS011;15036;48.094;-1.690;2023-05-13T12:45:30;21.42;;;16.35;;
27612;SDS011;15036;48.094;-1.690;2023-05-13T12:47:56;23.05;;;16.67;;
27612;SDS011;15036;48.094;-1.690;2023-05-13T12:50:23;20.00;;;15.57;;
27612;SDS011;15036;48.094;-1.690;2023-05-13T12:52:51;22.05;;;17.02;;
27612;SDS011;15036;48.094;-1.690;2023-05-13T12:55:17;20.25;;;15.68;;
27612;SDS011;15036;48.094;-1.690;2023-05-13T12:57:43;21.77;;;16.55;;
27612;SDS011;15036;48.094;-1.690;2023-05-13T13:00:19;19.80;;;16.10;;
27612;SDS011;15036;48.094;-1.690;2023-05-13T13:02:45;19.52;;;16.25;;
27612;SDS011;15036;48.094;-1.690;2023-05-13T13:05:10;22.33;;;16.17;;
27612;SDS011;15036;48.094;-1.690;2023-05-13T13:07:36;18.00;;;14.90;;
27612;SDS011;15036;48.094;-1.690;2023-05-13T13:10:03;20.92;;;15.90;;
27612;SDS011;15036;48.094;-1.690;2023-05-13T13:12:31;19.45;;;14.98;;
27612;SDS011;15036;48.094;-1.690;2023-05-13T13:14:57;20.80;;;15.55;;
27612;SDS011;15036;48.094;-1.690;2023-05-13T13:17:22;20.65;;;15.07;;
27612;SDS011;15036;48.094;-1.690;2023-05-13T13:19:47;19.40;;;14.50;;
27612;SDS011;15036;48.094;-1.690;2023-05-13T13:22:13;19.98;;;15.38;;
27612;SDS011;15036;48.094;-1.690;2023-05-13T13:24:39;22.10;;;14.48;;
27612;SDS011;15036;48.094;-1.690;2023-05-13T13:27:04;19.90;;;14.27;;
27612;SDS011;15036;48.094;-1.690;2023-05-13T13:29:30;19.75;;;15.35;;
27612;SDS011;15036;48.094;-1.690;2023-05-13T13:31:56;19.02;;;14.25;;
27612;SDS011;15036;48.094;-1.690;2023-05-13T13:34:21;16.80;;;14.05;;
27612;SDS011;15036;48.094;-1.690;2023-05-13T13:36:46;19.75;;;14.85;;
27612;SDS011;15036;48.094;-1.690;2023-05-13T13:39:12;18.67;;;14.60;;
27612;SDS011;15036;48.094;-1.690;2023-05-13T13:41:37;17.60;;;14.10;;
27612;SDS011;15036;48.094;-1.690;2023-05-13T13:44:02;20.85;;;14.65;;
27612;SDS011;15036;48.094;-1.690;2023-05-13T13:46:28;22.83;;;15.68;;
27612;SDS011;15036;48.094;-1.690;2023-05-13T13:48:53;23.75;;;14.80;;
27612;SDS011;15036;48.094;-1.690;2023-05-13T13:51:19;19.85;;;14.80;;
27612;SDS011;15036;48.094;-1.690;2023-05-13T13:53:45;22.05;;;15.27;;
27612;SDS011;15036;48.094;-1.690;2023-05-13T13:56:10;20.08;;;15.52;;
27612;SDS011;15036;48.094;-1.690;2023-05-13T13:58:35;19.35;;;14.75;;
27612;SDS011;15036;48.094;-1.690;2023-05-13T14:01:01;18.63;;;14.70;;
27612;SDS011;15036;48.094;-1.690;2023-05-13T14:03:26;19.85;;;13.63;;
27612;SDS011;15036;48.094;-1.690;2023-05-13T14:05:52;16.48;;;13.10;;
27612;SDS011;15036;48.094;-1.690;2023-05-13T14:08:19;18.02;;;14.45;;
27612;SDS011;15036;48.094;-1.690;2023-05-13T14:10:44;20.65;;;14.73;;
27612;SDS011;15036;48.094;-1.690;2023-05-13T14:13:10;19.90;;;14.65;;
27612;SDS011;15036;48.094;-1.690;2023-05-13T14:15:35;18.40;;;14.10;;
27612;SDS011;15036;48.094;-1.690;2023-05-13T14:18:03;17.85;;;13.98;;
27612;SDS011;15036;48.094;-1.690;2023-05-13T14:20:34;22.92;;;14.30;;
27612;SDS011;15036;48.094;-1.690;2023-05-13T14:23:00;20.13;;;14.38;;
27612;SDS011;15036;48.094;-1.690;2023-05-13T14:25:26;17.60;;;14.75;;
27612;SDS011;15036;48.094;-1.690;2023-05-13T14:27:52;21.00;;;15.70;;
27612;SDS011;15036;48.094;-1.690;2023-05-13T14:30:17;20.73;;;15.63;;
27612;SDS011;15036;48.094;-1.690;2023-05-13T14:32:43;20.33;;;15.15;;
27612;SDS011;15036;48.094;-1.690;2023-05-13T14:35:10;19.42;;;15.73;;
27612;SDS011;15036;48.094;-1.690;2023-05-13T14:37:36;24.00;;;15.80;;
27612;SDS011;15036;48.094;-1.690;2023-05-13T14:40:01;20.05;;;14.80;;
27612;SDS011;15036;48.094;-1.690;2023-05-13T14:42:27;18.58;;;15.20;;
27612;SDS011;15036;48.094;-1.690;2023-05-13T14:44:52;18.58;;;14.60;;